Latest Weather Observations for Ngayawili (Elcho Island)

IDD60801

Issued at 11:35 pm CST Wednesday 26 November 2014 (issued every 30 minutes, with the page automatically refreshed every 10 minutes)

About weather observations | Map of weather stations | Latest weather observations for NT | Other Formats
Station Details ID: 014517 Name: NGAYAWILI Lat: -12.00 Lon: 135.57 Height: 8.1 m
Data from the previous 72 hours. | See also: Recent months at Ngayawili (Elcho Island)
Date/Time
CST
Temp
°C
App
Temp
°C
Dew
Point
Rel
Hum
%
Delta-T
°C
Wind Press
QNH
hPa
Press
MSL
hPa
Rain
since 9 am
mm
Dir
 
Spd
km/h
Gust
km/h
Spd
kts
Gust
kts
26/11:30pm 26.8 - - - - ENE 9 11 5 6 - 1010.0 0.0
26/11:00pm 26.8 - - - - ENE 7 9 4 5 - 1011.4 0.0
26/10:30pm 27.2 - - - - ENE 7 9 4 5 - 1012.3 0.0
26/10:00pm 27.6 - - - - NE 7 11 4 6 - 1012.1 0.0
26/09:30pm 27.9 - - - - NE 11 19 6 10 - 1012.6 0.0
26/09:00pm 28.0 - - - - ENE 9 13 5 7 - 1013.7 0.0
26/08:30pm 27.8 - - - - ENE 9 13 5 7 - 1012.8 0.0
26/08:00pm 28.1 - - - - ENE 7 11 4 6 - 1013.0 0.0
26/07:30pm 28.6 - - - - ENE 7 11 4 6 - 1011.9 0.0
26/07:00pm 29.3 - - - - ENE 11 15 6 8 - 1011.2 0.0
26/06:30pm 29.9 - - - - NE 13 20 7 11 - 1011.0 0.0
26/06:00pm 30.8 - - - - NE 17 26 9 14 - 1009.9 0.0
26/05:30pm 31.4 - - - - NE 20 28 11 15 - 1008.9 0.0
26/05:00pm 32.0 - - - - NNE 20 32 11 17 - 1010.1 0.0
26/04:30pm 32.6 - - - - NNE 22 35 12 19 - 1010.9 0.0
26/04:00pm 33.9 - - - - NNE 24 35 13 19 - 1011.1 0.0
26/03:30pm 33.4 - - - - NE 22 33 12 18 - 1012.6 0.0
26/03:00pm 33.8 - - - - NNE 24 41 13 22 - 1012.7 0.0
26/02:30pm 33.7 - - - - NNE 28 37 15 20 - 1012.2 0.0
26/02:00pm 33.8 - - - - NNE 26 37 14 20 - 1012.3 0.0
26/01:30pm 32.5 - - - - NNE 26 37 14 20 - 1012.1 0.0
26/01:00pm 32.6 - - - - NNE 28 35 15 19 - 1012.5 0.0
26/12:30pm 33.8 - - - - N 28 39 15 21 - 1012.5 0.0
26/12:00pm 32.8 - - - - NNE 22 35 12 19 - 1012.6 0.0
26/11:30am 32.0 - - - - NNE 22 32 12 17 - 1013.2 0.0
26/11:00am 31.7 - - - - NNE 20 33 11 18 - 1013.2 0.0
26/10:30am 31.5 - - - - NNE 22 32 12 17 - 1013.2 0.0
26/10:00am 31.5 - - - - ENE 17 26 9 14 - 1013.4 0.0
26/09:30am 31.3 - - - - ENE 17 28 9 15 - 1013.6 0.0
26/09:00am 30.1 - - - - E 7 11 4 6 - 1015.3 0.0
26/08:30am 29.6 - - - - NE 7 11 4 6 - 1013.8 0.0
26/08:00am 28.1 - - - - NE 7 9 4 5 - 1013.9 0.0
26/07:30am 26.8 - - - - NE 6 9 3 5 - 1014.1 0.0
26/07:00am 25.3 - - - - NE 7 9 4 5 - 1013.9 0.0
26/06:30am 24.6 - - - - NE 7 9 4 5 - 1013.9 0.0
26/06:00am 24.1 - - - - NE 7 9 4 5 - 1013.7 0.0
26/05:30am 23.9 - - - - NE 7 7 4 4 - 1013.7 0.0
26/05:00am 24.1 - - - - NE 6 7 3 4 - 1013.6 0.0
26/04:30am 24.3 - - - - NE 6 7 3 4 - 1013.8 0.0
26/04:00am 24.6 - - - - NE 7 9 4 5 - 1013.9 0.0
26/03:30am 24.4 - - - - NE 7 7 4 4 - 1013.9 0.0
26/03:00am 24.7 - - - - NE 7 7 4 4 - 1014.1 0.0
26/02:30am 24.7 - - - - NE 6 6 3 3 - 1014.4 0.0
26/02:00am 25.3 - - - - NE 7 7 4 4 - 1014.6 0.0
26/01:30am 25.6 - - - - NE 7 9 4 5 - 1014.8 0.0
26/01:00am 26.2 - - - - NE 7 9 4 5 - 1015.1 0.0
26/12:30am 26.1 - - - - NE 9 11 5 6 - 1015.3 0.0
26/12:00am 26.4 - - - - NE 7 9 4 5 - 1015.2 0.0
 
Date/Time
CST
Temp
°C
App
Temp
°C
Dew
Point
Rel
Hum
%
Delta-T
°C
Wind Press
QNH
hPa
Press
MSL
hPa
Rain
since 9 am
mm
Dir
 
Spd
km/h
Gust
km/h
Spd
kts
Gust
kts
25/11:30pm 26.9 - - - - NE 7 11 4 6 - 1015.3 0.0
25/11:00pm 27.0 - - - - NNE 9 13 5 7 - 1015.4 0.0
25/10:30pm 27.0 - - - - NNE 7 13 4 7 - 1015.1 0.0
25/10:00pm 27.2 - - - - NNE 7 11 4 6 - 1015.0 0.0
25/09:30pm 27.3 - - - - NNE 7 11 4 6 - 1014.9 0.0
25/09:00pm 27.4 - - - - NNE 7 9 4 5 - 1015.1 0.0
25/08:30pm 27.8 - - - - NNE 7 9 4 5 - 1015.3 0.0
25/08:00pm 28.2 - - - - NNE 7 11 4 6 - 1015.4 0.0
25/07:30pm 29.0 - - - - NNE 13 19 7 10 - 1015.6 0.0
25/07:00pm 28.9 - - - - NNE 17 24 9 13 - 1015.6 0.0
25/06:30pm 29.2 - - - - NNE 20 30 11 16 - 1015.7 0.0
25/06:00pm 29.8 - - - - NNE 20 28 11 15 - 1015.9 0.0
25/05:30pm 30.3 - - - - N 22 32 12 17 - 1016.3 0.0
25/05:00pm 30.5 - - - - N 24 32 13 17 - 1016.5 0.0
25/04:30pm 30.7 - - - - N 30 35 16 19 - 1016.9 0.0
25/04:00pm 31.4 - - - - N 30 35 16 19 - 1017.2 0.0
25/03:30pm 31.3 - - - - N 28 35 15 19 - 1017.5 0.0
25/03:00pm 32.0 - - - - N 26 30 14 16 - 1017.9 0.0
25/02:30pm 32.9 - - - - N 24 28 13 15 - 1018.5 0.0
25/02:00pm 32.0 - - - - N 26 30 14 16 - 1019.0 0.0
25/01:30pm 31.9 - - - - N 26 30 14 16 - 1019.2 0.0
25/01:00pm 31.9 - - - - N 28 30 15 16 - 1019.3 0.0
25/12:30pm 31.9 - - - - N 26 32 14 17 - 1019.5 0.0
25/12:00pm 32.0 - - - - N 28 32 15 17 - 1019.9 0.0
25/11:30am 31.9 - - - - N 22 26 12 14 - 1017.7 0.0
25/11:00am 31.9 - - - - NE 11 17 6 9 - 1020.3 0.0
25/10:30am 31.3 - - - - N 24 28 13 15 - 1018.4 0.0
25/10:00am 31.2 - - - - N 20 26 11 14 - 1022.2 0.0
25/09:30am 30.5 - - - - NNE 11 26 6 14 - 1020.5 0.0
25/09:00am 29.2 - - - - NE 2 7 1 4 - 1020.4 0.0
25/08:30am 28.8 - - - - NE 7 9 4 5 - 1020.2 0.0
25/08:00am 28.3 - - - - NE 7 9 4 5 - 1020.0 0.0
25/07:30am 28.3 - - - - NE 7 11 4 6 - 1019.9 0.0
25/07:00am 26.6 - - - - NE 7 9 4 5 - 1020.0 0.0
25/06:30am 25.0 - - - - NE 7 9 4 5 - 1019.8 0.0
25/06:00am 24.9 - - - - NE 7 9 4 5 - 1019.6 0.0
25/05:30am 25.0 - - - - NE 9 11 5 6 - 1019.5 0.0
25/05:00am 24.3 - - - - NE 7 9 4 5 - 1017.6 0.0
25/04:30am 24.8 - - - - NE 7 9 4 5 - 1019.5 0.0
25/04:00am 24.7 - - - - NE 7 9 4 5 - 1019.5 0.0
25/03:30am 24.7 - - - - NE 7 9 4 5 - 1019.7 0.0
25/03:00am 24.9 - - - - NE 7 9 4 5 - 1019.9 0.0
25/02:30am 25.5 - - - - NE 7 9 4 5 - 1020.2 0.0
25/02:00am 25.3 - - - - NE 7 9 4 5 - 1020.3 0.0
25/01:30am 26.2 - - - - NE 7 9 4 5 - 1020.6 0.0
25/01:00am 26.2 - - - - NE 9 11 5 6 - 1020.8 0.0
25/12:30am 26.5 - - - - NE 7 11 4 6 - 1020.8 0.0
25/12:00am 26.6 - - - - NE 7 13 4 7 - 1020.8 0.0
 
Date/Time
CST
Temp
°C
App
Temp
°C
Dew
Point
Rel
Hum
%
Delta-T
°C
Wind Press
QNH
hPa
Press
MSL
hPa
Rain
since 9 am
mm
Dir
 
Spd
km/h
Gust
km/h
Spd
kts
Gust
kts
24/11:30pm 26.5 - - - - NE 7 9 4 5 - 1010.3 0.0
24/11:00pm 26.9 - - - - NE 7 9 4 5 - 1021.0 0.0
24/10:30pm 27.5 - - - - NE 9 13 5 7 - 1020.8 0.0
24/10:00pm 28.0 - - - - NE 9 11 5 6 - 1020.7 0.0
24/09:30pm 28.2 - - - - NNE 11 13 6 7 - 1020.9 0.0
24/09:00pm 28.3 - - - - NNE 13 17 7 9 - 1021.1 0.0
24/08:30pm 28.5 - - - - NNE 15 20 8 11 - 1020.7 0.0
24/08:00pm 28.7 - - - - N 15 20 8 11 - 1020.6 0.0
24/07:30pm 28.7 - - - - NNE 19 24 10 13 - 1020.4 0.0
24/07:00pm 28.7 - - - - NNE 20 32 11 17 - 1017.7 0.0
24/06:30pm 29.1 - - - - NNE 20 28 11 15 - 1020.1 0.0
24/06:00pm 29.4 - - - - NNE 20 28 11 15 - 1020.0 0.0
24/05:30pm 30.2 - - - - N 26 33 14 18 - 1020.1 0.0
24/05:00pm 30.5 - - - - N 28 39 15 21 - 1020.4 0.0
24/04:30pm 31.2 - - - - N 28 33 15 18 - 1020.9 0.0
24/04:00pm 31.2 - - - - N 28 35 15 19 - 1023.0 0.0
24/03:30pm 31.5 - - - - N 30 35 16 19 - 1021.3 0.0
24/03:00pm 31.8 - - - - N 28 32 15 17 - 1021.6 0.0
24/02:30pm 31.3 - - - - N 24 28 13 15 - 1022.0 0.0
24/02:00pm 32.3 - - - - N 24 30 13 16 - 1022.3 0.0
24/01:30pm 31.8 - - - - N 24 30 13 16 - 1022.4 0.0
24/01:00pm 30.8 - - - - N 24 28 13 15 - 1022.5 0.0
24/12:30pm 31.8 - - - - N 24 28 13 15 - 1022.7 0.0
24/12:00pm 32.4 - - - - N 24 30 13 16 - 1022.8 0.0
24/11:30am 32.0 - - - - N 26 32 14 17 - 1023.1 0.0
24/11:00am 31.4 - - - - N 26 35 14 19 - 1023.3 0.0
24/10:30am 30.6 - - - - N 28 35 15 19 - 1023.5 0.0
24/10:00am 30.8 - - - - N 26 33 14 18 - 1023.8 0.0
24/09:30am 30.8 - - - - NNE 22 33 12 18 - 1023.9 0.0
24/09:00am 30.0 - - - - NNE 20 28 11 15 - 1023.7 0.0
24/08:30am 29.8 - - - - NE 19 32 10 17 - 1023.6 0.0
24/08:00am 29.9 - - - - NNE 17 26 9 14 - 1023.3 0.0
24/07:30am 28.5 - - - - ENE 7 9 4 5 - 1023.1 0.0
24/07:00am 27.0 - - - - ENE 9 13 5 7 - 1023.0 0.0
24/06:30am 25.3 - - - - ENE 9 11 5 6 - 1021.5 0.0
24/06:00am 24.9 - - - - ENE 7 11 4 6 - 1022.5 0.0
24/05:30am 24.9 - - - - ENE 9 9 5 5 - 1022.4 0.0
24/05:00am 24.8 - - - - ENE 7 9 4 5 - 1022.3 0.0
24/04:30am 25.1 - - - - ENE 7 9 4 5 - 1022.1 0.0
24/04:00am 25.0 - - - - ENE 7 11 4 6 - 1022.1 0.0
24/03:30am 25.3 - - - - ENE 7 9 4 5 - 1022.0 0.0
24/03:00am 25.4 - - - - ENE 7 9 4 5 - 1022.0 0.0
24/02:30am 25.3 - - - - ENE 7 9 4 5 - 1022.1 0.0
24/02:00am 25.3 - - - - ENE 6 7 3 4 - 1022.2 0.0
24/01:30am 25.8 - - - - ENE 7 11 4 6 - 1022.2 0.0
24/01:00am 25.8 - - - - ENE 7 9 4 5 - 1022.1 0.0
24/12:30am 26.1 - - - - ENE 6 9 3 5 - 1022.1 0.0
24/12:00am 26.3 - - - - ENE 7 9 4 5 - 1022.0 0.0

Other Formats:

Comma delimited format used in spreadsheet applications
http://www.bom.gov.au/fwo/IDD60801/IDD60801.95146.axf

JavaScript Object Notation format (JSON) in row-major order
http://www.bom.gov.au/fwo/IDD60801/IDD60801.95146.json